sensor_id;sensor_type;location;lat;lon;timestamp;temperature;humidity
12130;DHT22;6128;59.340;18.040;2022-08-21T00:01:16;20.60;99.90
12130;DHT22;6128;59.340;18.040;2022-08-21T00:03:46;20.60;99.90
12130;DHT22;6128;59.340;18.040;2022-08-21T00:06:14;20.60;99.90
12130;DHT22;6128;59.340;18.040;2022-08-21T00:08:41;20.80;99.90
12130;DHT22;6128;59.340;18.040;2022-08-21T00:11:08;20.80;99.90
12130;DHT22;6128;59.340;18.040;2022-08-21T00:13:36;20.80;99.90
12130;DHT22;6128;59.340;18.040;2022-08-21T00:16:04;20.70;99.90
12130;DHT22;6128;59.340;18.040;2022-08-21T00:18:31;20.70;99.90
12130;DHT22;6128;59.340;18.040;2022-08-21T00:21:00;20.70;99.90
12130;DHT22;6128;59.340;18.040;2022-08-21T00:23:27;20.60;99.90
12130;DHT22;6128;59.340;18.040;2022-08-21T00:25:54;20.60;99.90
12130;DHT22;6128;59.340;18.040;2022-08-21T00:28:21;20.60;99.90
12130;DHT22;6128;59.340;18.040;2022-08-21T00:30:48;20.60;99.90
12130;DHT22;6128;59.340;18.040;2022-08-21T00:33:16;20.60;99.90
12130;DHT22;6128;59.340;18.040;2022-08-21T00:35:44;20.60;99.90
12130;DHT22;6128;59.340;18.040;2022-08-21T00:38:12;20.60;99.90
12130;DHT22;6128;59.340;18.040;2022-08-21T00:40:43;20.60;99.90
12130;DHT22;6128;59.340;18.040;2022-08-21T00:43:12;20.50;99.90
12130;DHT22;6128;59.340;18.040;2022-08-21T00:45:40;20.60;99.90
12130;DHT22;6128;59.340;18.040;2022-08-21T00:48:07;20.60;99.90
12130;DHT22;6128;59.340;18.040;2022-08-21T00:50:38;20.60;99.90
12130;DHT22;6128;59.340;18.040;2022-08-21T00:53:07;20.60;99.90
12130;DHT22;6128;59.340;18.040;2022-08-21T00:55:38;20.50;99.90
12130;DHT22;6128;59.340;18.040;2022-08-21T00:58:07;20.50;99.90
12130;DHT22;6128;59.340;18.040;2022-08-21T01:00:38;20.50;99.90
12130;DHT22;6128;59.340;18.040;2022-08-21T01:03:07;20.40;99.90
12130;DHT22;6128;59.340;18.040;2022-08-21T01:05:35;20.30;99.90
12130;DHT22;6128;59.340;18.040;2022-08-21T01:08:03;20.30;99.90
12130;DHT22;6128;59.340;18.040;2022-08-21T01:10:30;20.40;99.90
12130;DHT22;6128;59.340;18.040;2022-08-21T01:12:59;20.40;99.90
12130;DHT22;6128;59.340;18.040;2022-08-21T01:15:34;20.30;99.90
12130;DHT22;6128;59.340;18.040;2022-08-21T01:18:03;20.30;99.90
12130;DHT22;6128;59.340;18.040;2022-08-21T01:20:31;20.40;99.90
12130;DHT22;6128;59.340;18.040;2022-08-21T01:23:05;20.30;99.90
12130;DHT22;6128;59.340;18.040;2022-08-21T01:25:33;20.20;99.90
12130;DHT22;6128;59.340;18.040;2022-08-21T01:28:09;20.10;99.90
12130;DHT22;6128;59.340;18.040;2022-08-21T01:30:39;20.00;99.90
12130;DHT22;6128;59.340;18.040;2022-08-21T01:33:07;20.00;99.90
12130;DHT22;6128;59.340;18.040;2022-08-21T01:35:34;19.90;99.90
12130;DHT22;6128;59.340;18.040;2022-08-21T01:38:03;19.80;99.90
12130;DHT22;6128;59.340;18.040;2022-08-21T01:40:30;19.80;99.90
12130;DHT22;6128;59.340;18.040;2022-08-21T01:42:57;19.90;99.90
12130;DHT22;6128;59.340;18.040;2022-08-21T01:45:24;19.80;99.90
12130;DHT22;6128;59.340;18.040;2022-08-21T01:47:51;20.00;99.90
12130;DHT22;6128;59.340;18.040;2022-08-21T01:50:20;20.10;99.90
12130;DHT22;6128;59.340;18.040;2022-08-21T01:52:48;20.30;99.90
12130;DHT22;6128;59.340;18.040;2022-08-21T01:55:17;20.30;99.90
12130;DHT22;6128;59.340;18.040;2022-08-21T01:57:46;20.20;99.90
12130;DHT22;6128;59.340;18.040;2022-08-21T02:00:15;20.10;99.90
12130;DHT22;6128;59.340;18.040;2022-08-21T02:02:43;20.00;99.90
12130;DHT22;6128;59.340;18.040;2022-08-21T02:05:11;20.10;99.90
12130;DHT22;6128;59.340;18.040;2022-08-21T02:07:41;20.10;99.90
12130;DHT22;6128;59.340;18.040;2022-08-21T02:10:10;20.10;99.90
12130;DHT22;6128;59.340;18.040;2022-08-21T02:12:39;20.10;99.90
12130;DHT22;6128;59.340;18.040;2022-08-21T02:15:07;20.00;99.90
12130;DHT22;6128;59.340;18.040;2022-08-21T02:17:43;20.00;99.90
12130;DHT22;6128;59.340;18.040;2022-08-21T02:20:15;20.00;99.90
12130;DHT22;6128;59.340;18.040;2022-08-21T02:22:42;20.10;99.90
12130;DHT22;6128;59.340;18.040;2022-08-21T02:25:10;20.10;99.90
12130;DHT22;6128;59.340;18.040;2022-08-21T02:27:40;20.10;99.90
12130;DHT22;6128;59.340;18.040;2022-08-21T02:30:09;20.00;99.90
12130;DHT22;6128;59.340;18.040;2022-08-21T02:32:37;20.00;99.90
12130;DHT22;6128;59.340;18.040;2022-08-21T02:35:05;20.00;99.90
12130;DHT22;6128;59.340;18.040;2022-08-21T02:37:33;20.00;99.90
12130;DHT22;6128;59.340;18.040;2022-08-21T02:40:00;20.00;99.90
12130;DHT22;6128;59.340;18.040;2022-08-21T02:42:28;19.90;99.90
12130;DHT22;6128;59.340;18.040;2022-08-21T02:44:57;20.00;99.90
12130;DHT22;6128;59.340;18.040;2022-08-21T02:47:24;20.00;99.90
12130;DHT22;6128;59.340;18.040;2022-08-21T02:49:52;20.00;99.90
12130;DHT22;6128;59.340;18.040;2022-08-21T02:52:19;20.00;99.90
12130;DHT22;6128;59.340;18.040;2022-08-21T02:54:47;20.00;99.90
12130;DHT22;6128;59.340;18.040;2022-08-21T02:57:14;19.80;99.90
12130;DHT22;6128;59.340;18.040;2022-08-21T02:59:42;19.70;99.90
12130;DHT22;6128;59.340;18.040;2022-08-21T03:02:10;19.70;99.90
12130;DHT22;6128;59.340;18.040;2022-08-21T03:04:37;19.70;99.90
12130;DHT22;6128;59.340;18.040;2022-08-21T03:07:04;19.70;99.90
12130;DHT22;6128;59.340;18.040;2022-08-21T03:09:33;19.70;99.90
12130;DHT22;6128;59.340;18.040;2022-08-21T03:12:00;19.70;99.90
12130;DHT22;6128;59.340;18.040;2022-08-21T03:14:27;19.70;99.90
12130;DHT22;6128;59.340;18.040;2022-08-21T03:16:54;19.80;99.90
12130;DHT22;6128;59.340;18.040;2022-08-21T03:19:23;19.80;99.90
12130;DHT22;6128;59.340;18.040;2022-08-21T03:21:50;19.80;99.90
12130;DHT22;6128;59.340;18.040;2022-08-21T03:24:18;19.70;99.90
12130;DHT22;6128;59.340;18.040;2022-08-21T03:26:45;19.80;99.90
12130;DHT22;6128;59.340;18.040;2022-08-21T03:29:12;19.80;99.90
12130;DHT22;6128;59.340;18.040;2022-08-21T03:31:39;19.90;99.90
12130;DHT22;6128;59.340;18.040;2022-08-21T03:34:06;20.00;99.90
12130;DHT22;6128;59.340;18.040;2022-08-21T03:36:35;19.90;99.90
12130;DHT22;6128;59.340;18.040;2022-08-21T03:39:02;19.80;99.90
12130;DHT22;6128;59.340;18.040;2022-08-21T03:41:30;19.80;99.90
12130;DHT22;6128;59.340;18.040;2022-08-21T03:43:57;19.80;99.90
12130;DHT22;6128;59.340;18.040;2022-08-21T03:46:24;19.80;99.90
12130;DHT22;6128;59.340;18.040;2022-08-21T03:48:54;19.70;99.90
12130;DHT22;6128;59.340;18.040;2022-08-21T03:51:22;19.70;99.90
12130;DHT22;6128;59.340;18.040;2022-08-21T03:53:50;19.70;99.90
12130;DHT22;6128;59.340;18.040;2022-08-21T03:56:17;19.70;99.90
12130;DHT22;6128;59.340;18.040;2022-08-21T03:58:44;19.70;99.90
12130;DHT22;6128;59.340;18.040;2022-08-21T04:01:11;19.80;99.90
12130;DHT22;6128;59.340;18.040;2022-08-21T04:03:38;19.80;99.90
12130;DHT22;6128;59.340;18.040;2022-08-21T04:06:06;19.90;99.90
12130;DHT22;6128;59.340;18.040;2022-08-21T04:08:34;19.90;99.90
12130;DHT22;6128;59.340;18.040;2022-08-21T04:11:03;19.90;99.90
12130;DHT22;6128;59.340;18.040;2022-08-21T04:13:30;19.90;99.90
12130;DHT22;6128;59.340;18.040;2022-08-21T04:15:57;19.90;99.90
12130;DHT22;6128;59.340;18.040;2022-08-21T04:18:25;19.90;99.90
12130;DHT22;6128;59.340;18.040;2022-08-21T04:20:53;19.80;99.90
12130;DHT22;6128;59.340;18.040;2022-08-21T04:23:21;19.90;99.90
12130;DHT22;6128;59.340;18.040;2022-08-21T04:25:48;20.10;99.90
12130;DHT22;6128;59.340;18.040;2022-08-21T04:28:17;20.20;99.90
12130;DHT22;6128;59.340;18.040;2022-08-21T04:30:44;20.20;99.90
12130;DHT22;6128;59.340;18.040;2022-08-21T04:33:12;20.20;99.90
12130;DHT22;6128;59.340;18.040;2022-08-21T04:35:39;20.10;99.90
12130;DHT22;6128;59.340;18.040;2022-08-21T04:38:07;20.00;99.90
12130;DHT22;6128;59.340;18.040;2022-08-21T04:40:34;19.90;99.90
12130;DHT22;6128;59.340;18.040;2022-08-21T04:43:04;19.80;99.90
12130;DHT22;6128;59.340;18.040;2022-08-21T04:45:35;19.70;99.90
12130;DHT22;6128;59.340;18.040;2022-08-21T04:48:05;19.60;99.90
12130;DHT22;6128;59.340;18.040;2022-08-21T04:50:37;19.50;99.90
12130;DHT22;6128;59.340;18.040;2022-08-21T04:53:08;19.60;99.90
12130;DHT22;6128;59.340;18.040;2022-08-21T04:55:37;19.60;99.90
12130;DHT22;6128;59.340;18.040;2022-08-21T04:58:05;19.60;99.90
12130;DHT22;6128;59.340;18.040;2022-08-21T05:00:35;19.60;99.90
12130;DHT22;6128;59.340;18.040;2022-08-21T05:03:04;19.70;99.90
12130;DHT22;6128;59.340;18.040;2022-08-21T05:05:32;19.70;99.90
12130;DHT22;6128;59.340;18.040;2022-08-21T05:08:01;19.70;99.90
12130;DHT22;6128;59.340;18.040;2022-08-21T05:10:29;19.80;99.90
12130;DHT22;6128;59.340;18.040;2022-08-21T05:12:58;19.80;99.90
12130;DHT22;6128;59.340;18.040;2022-08-21T05:15:26;19.90;99.90
12130;DHT22;6128;59.340;18.040;2022-08-21T05:17:55;19.80;99.90
12130;DHT22;6128;59.340;18.040;2022-08-21T05:20:22;19.90;99.90
12130;DHT22;6128;59.340;18.040;2022-08-21T05:22:49;19.90;99.90
12130;DHT22;6128;59.340;18.040;2022-08-21T05:25:16;19.90;99.90
12130;DHT22;6128;59.340;18.040;2022-08-21T05:27:43;19.80;99.90
12130;DHT22;6128;59.340;18.040;2022-08-21T05:30:11;19.80;99.90
12130;DHT22;6128;59.340;18.040;2022-08-21T05:32:38;19.80;99.90
12130;DHT22;6128;59.340;18.040;2022-08-21T05:35:08;19.80;99.90
12130;DHT22;6128;59.340;18.040;2022-08-21T05:37:35;19.70;99.90
12130;DHT22;6128;59.340;18.040;2022-08-21T05:40:04;19.70;99.90
12130;DHT22;6128;59.340;18.040;2022-08-21T05:42:31;19.80;99.90
12130;DHT22;6128;59.340;18.040;2022-08-21T05:44:58;19.70;99.90
12130;DHT22;6128;59.340;18.040;2022-08-21T05:47:26;19.80;99.90
12130;DHT22;6128;59.340;18.040;2022-08-21T05:49:53;19.80;99.90
12130;DHT22;6128;59.340;18.040;2022-08-21T05:52:22;19.80;99.90
12130;DHT22;6128;59.340;18.040;2022-08-21T05:54:49;19.90;99.90
12130;DHT22;6128;59.340;18.040;2022-08-21T05:57:19;20.00;99.90
12130;DHT22;6128;59.340;18.040;2022-08-21T05:59:46;19.90;99.90
12130;DHT22;6128;59.340;18.040;2022-08-21T06:02:13;19.90;99.90
12130;DHT22;6128;59.340;18.040;2022-08-21T06:04:40;20.00;99.90
12130;DHT22;6128;59.340;18.040;2022-08-21T06:07:08;20.10;99.90
12130;DHT22;6128;59.340;18.040;2022-08-21T06:09:38;20.10;99.90
12130;DHT22;6128;59.340;18.040;2022-08-21T06:12:07;20.00;99.90
12130;DHT22;6128;59.340;18.040;2022-08-21T06:14:35;20.00;99.90
12130;DHT22;6128;59.340;18.040;2022-08-21T06:17:03;20.10;99.90
12130;DHT22;6128;59.340;18.040;2022-08-21T06:19:31;20.10;99.90
12130;DHT22;6128;59.340;18.040;2022-08-21T06:21:58;20.20;99.90
12130;DHT22;6128;59.340;18.040;2022-08-21T06:24:25;20.20;99.90
12130;DHT22;6128;59.340;18.040;2022-08-21T06:27:03;20.30;99.90
12130;DHT22;6128;59.340;18.040;2022-08-21T06:29:30;20.30;99.90
12130;DHT22;6128;59.340;18.040;2022-08-21T06:31:57;20.40;99.90
12130;DHT22;6128;59.340;18.040;2022-08-21T06:34:24;20.40;99.90
12130;DHT22;6128;59.340;18.040;2022-08-21T06:36:51;20.50;99.90
12130;DHT22;6128;59.340;18.040;2022-08-21T06:39:19;20.40;99.90
12130;DHT22;6128;59.340;18.040;2022-08-21T06:41:47;20.40;99.90
12130;DHT22;6128;59.340;18.040;2022-08-21T06:44:17;20.50;99.90
12130;DHT22;6128;59.340;18.040;2022-08-21T06:46:44;20.40;99.90
12130;DHT22;6128;59.340;18.040;2022-08-21T06:49:12;20.40;99.90
12130;DHT22;6128;59.340;18.040;2022-08-21T06:51:40;20.40;99.90
12130;DHT22;6128;59.340;18.040;2022-08-21T06:54:07;20.40;99.90
12130;DHT22;6128;59.340;18.040;2022-08-21T06:56:34;20.50;99.90
12130;DHT22;6128;59.340;18.040;2022-08-21T06:59:03;20.50;99.90
12130;DHT22;6128;59.340;18.040;2022-08-21T07:01:33;20.60;99.90
12130;DHT22;6128;59.340;18.040;2022-08-21T07:04:00;20.60;99.90
12130;DHT22;6128;59.340;18.040;2022-08-21T07:06:27;20.60;99.90
12130;DHT22;6128;59.340;18.040;2022-08-21T07:08:54;20.60;99.90
12130;DHT22;6128;59.340;18.040;2022-08-21T07:11:22;20.50;99.90
12130;DHT22;6128;59.340;18.040;2022-08-21T07:13:50;20.50;99.90
12130;DHT22;6128;59.340;18.040;2022-08-21T07:16:19;20.50;99.90
12130;DHT22;6128;59.340;18.040;2022-08-21T07:18:48;20.40;99.90
12130;DHT22;6128;59.340;18.040;2022-08-21T07:21:16;20.40;99.90
12130;DHT22;6128;59.340;18.040;2022-08-21T07:23:47;20.30;99.90
12130;DHT22;6128;59.340;18.040;2022-08-21T07:26:17;20.40;99.90
12130;DHT22;6128;59.340;18.040;2022-08-21T07:28:45;20.20;99.90
12130;DHT22;6128;59.340;18.040;2022-08-21T07:31:21;20.30;99.90
12130;DHT22;6128;59.340;18.040;2022-08-21T07:33:50;20.20;99.90
12130;DHT22;6128;59.340;18.040;2022-08-21T07:36:22;20.20;99.90
12130;DHT22;6128;59.340;18.040;2022-08-21T07:38:50;20.20;99.90
12130;DHT22;6128;59.340;18.040;2022-08-21T07:41:21;20.20;99.90
12130;DHT22;6128;59.340;18.040;2022-08-21T07:43:48;20.20;99.90
12130;DHT22;6128;59.340;18.040;2022-08-21T07:46:15;20.30;99.90
12130;DHT22;6128;59.340;18.040;2022-08-21T07:48:43;20.20;99.90
12130;DHT22;6128;59.340;18.040;2022-08-21T07:51:14;20.10;99.90
12130;DHT22;6128;59.340;18.040;2022-08-21T07:53:45;20.10;99.90
12130;DHT22;6128;59.340;18.040;2022-08-21T07:56:13;20.10;99.90
12130;DHT22;6128;59.340;18.040;2022-08-21T07:58:41;20.10;99.90
12130;DHT22;6128;59.340;18.040;2022-08-21T08:01:08;20.10;99.90
12130;DHT22;6128;59.340;18.040;2022-08-21T08:03:35;20.10;99.90
12130;DHT22;6128;59.340;18.040;2022-08-21T08:06:04;20.10;99.90
12130;DHT22;6128;59.340;18.040;2022-08-21T08:08:33;20.10;99.90
12130;DHT22;6128;59.340;18.040;2022-08-21T08:11:00;20.20;99.90
12130;DHT22;6128;59.340;18.040;2022-08-21T08:13:28;20.30;99.90
12130;DHT22;6128;59.340;18.040;2022-08-21T08:15:55;20.40;99.90
12130;DHT22;6128;59.340;18.040;2022-08-21T08:18:22;20.50;99.90
12130;DHT22;6128;59.340;18.040;2022-08-21T08:20:49;20.70;99.90
12130;DHT22;6128;59.340;18.040;2022-08-21T08:23:16;21.00;99.90
12130;DHT22;6128;59.340;18.040;2022-08-21T08:25:45;21.20;99.90
12130;DHT22;6128;59.340;18.040;2022-08-21T08:28:13;21.50;99.90
12130;DHT22;6128;59.340;18.040;2022-08-21T08:30:40;21.80;99.90
12130;DHT22;6128;59.340;18.040;2022-08-21T08:33:08;21.90;99.90
12130;DHT22;6128;59.340;18.040;2022-08-21T08:35:35;22.10;99.90
12130;DHT22;6128;59.340;18.040;2022-08-21T08:38:03;22.20;99.90
12130;DHT22;6128;59.340;18.040;2022-08-21T08:40:35;22.20;99.90
12130;DHT22;6128;59.340;18.040;2022-08-21T08:43:05;22.30;99.90
12130;DHT22;6128;59.340;18.040;2022-08-21T08:45:36;22.40;99.90
12130;DHT22;6128;59.340;18.040;2022-08-21T08:48:08;22.60;99.90
12130;DHT22;6128;59.340;18.040;2022-08-21T08:50:41;22.80;99.90
12130;DHT22;6128;59.340;18.040;2022-08-21T08:53:12;23.20;99.90
12130;DHT22;6128;59.340;18.040;2022-08-21T08:55:44;23.60;99.90
12130;DHT22;6128;59.340;18.040;2022-08-21T08:58:18;23.70;99.90
12130;DHT22;6128;59.340;18.040;2022-08-21T09:00:49;23.60;99.90
12130;DHT22;6128;59.340;18.040;2022-08-21T09:03:16;23.50;99.90
12130;DHT22;6128;59.340;18.040;2022-08-21T09:05:48;23.50;99.90
12130;DHT22;6128;59.340;18.040;2022-08-21T09:08:38;23.70;99.90
12130;DHT22;6128;59.340;18.040;2022-08-21T09:11:13;24.10;99.90
12130;DHT22;6128;59.340;18.040;2022-08-21T09:13:53;24.50;99.90
12130;DHT22;6128;59.340;18.040;2022-08-21T09:16:32;24.80;99.90
12130;DHT22;6128;59.340;18.040;2022-08-21T09:19:11;24.80;99.90
12130;DHT22;6128;59.340;18.040;2022-08-21T09:21:51;24.70;99.90
12130;DHT22;6128;59.340;18.040;2022-08-21T09:24:31;24.70;99.90
12130;DHT22;6128;59.340;18.040;2022-08-21T09:27:04;24.70;99.90
12130;DHT22;6128;59.340;18.040;2022-08-21T09:29:39;24.60;99.90
12130;DHT22;6128;59.340;18.040;2022-08-21T09:32:13;24.50;99.90
12130;DHT22;6128;59.340;18.040;2022-08-21T09:34:42;24.40;99.90
12130;DHT22;6128;59.340;18.040;2022-08-21T09:37:16;24.30;99.90
12130;DHT22;6128;59.340;18.040;2022-08-21T09:39:44;24.20;99.90
12130;DHT22;6128;59.340;18.040;2022-08-21T09:42:11;24.00;99.90
12130;DHT22;6128;59.340;18.040;2022-08-21T09:45:00;23.90;99.90
12130;DHT22;6128;59.340;18.040;2022-08-21T09:47:31;23.80;99.90
12130;DHT22;6128;59.340;18.040;2022-08-21T09:50:08;23.90;99.90
12130;DHT22;6128;59.340;18.040;2022-08-21T09:52:43;23.80;99.90
12130;DHT22;6128;59.340;18.040;2022-08-21T09:55:18;23.70;99.90
12130;DHT22;6128;59.340;18.040;2022-08-21T09:57:59;23.50;99.90
12130;DHT22;6128;59.340;18.040;2022-08-21T10:00:31;23.40;99.90
12130;DHT22;6128;59.340;18.040;2022-08-21T10:03:10;23.40;99.90
12130;DHT22;6128;59.340;18.040;2022-08-21T10:05:39;23.40;99.90
12130;DHT22;6128;59.340;18.040;2022-08-21T10:08:17;23.40;99.90
12130;DHT22;6128;59.340;18.040;2022-08-21T10:10:44;23.30;99.90
12130;DHT22;6128;59.340;18.040;2022-08-21T10:13:14;23.20;99.90
12130;DHT22;6128;59.340;18.040;2022-08-21T10:15:56;23.20;99.90
12130;DHT22;6128;59.340;18.040;2022-08-21T10:18:32;23.20;99.90
12130;DHT22;6128;59.340;18.040;2022-08-21T10:21:10;23.20;99.90
12130;DHT22;6128;59.340;18.040;2022-08-21T10:23:53;23.00;99.90
12130;DHT22;6128;59.340;18.040;2022-08-21T10:26:31;22.90;99.90
12130;DHT22;6128;59.340;18.040;2022-08-21T10:29:12;23.00;99.90
12130;DHT22;6128;59.340;18.040;2022-08-21T10:31:50;23.10;99.90
12130;DHT22;6128;59.340;18.040;2022-08-21T10:34:31;23.20;99.90
12130;DHT22;6128;59.340;18.040;2022-08-21T10:37:12;23.30;99.90
12130;DHT22;6128;59.340;18.040;2022-08-21T10:39:49;23.50;99.90
12130;DHT22;6128;59.340;18.040;2022-08-21T10:42:28;23.70;99.90
12130;DHT22;6128;59.340;18.040;2022-08-21T10:45:08;23.90;99.90
12130;DHT22;6128;59.340;18.040;2022-08-21T10:47:44;24.00;99.90
12130;DHT22;6128;59.340;18.040;2022-08-21T10:50:23;23.90;99.90
12130;DHT22;6128;59.340;18.040;2022-08-21T10:53:09;23.80;99.90
12130;DHT22;6128;59.340;18.040;2022-08-21T10:55:43;23.70;99.90
12130;DHT22;6128;59.340;18.040;2022-08-21T10:58:22;23.70;99.90
12130;DHT22;6128;59.340;18.040;2022-08-21T11:00:56;23.60;99.90
12130;DHT22;6128;59.340;18.040;2022-08-21T11:03:32;23.50;99.90
12130;DHT22;6128;59.340;18.040;2022-08-21T11:06:02;23.30;99.90
12130;DHT22;6128;59.340;18.040;2022-08-21T11:08:35;23.30;99.90
12130;DHT22;6128;59.340;18.040;2022-08-21T11:11:07;23.30;99.90
12130;DHT22;6128;59.340;18.040;2022-08-21T11:13:40;23.40;99.90
12130;DHT22;6128;59.340;18.040;2022-08-21T11:16:15;23.40;99.90
12130;DHT22;6128;59.340;18.040;2022-08-21T11:18:50;23.40;99.90
12130;DHT22;6128;59.340;18.040;2022-08-21T11:21:29;23.30;99.90
12130;DHT22;6128;59.340;18.040;2022-08-21T11:24:02;23.20;99.90
12130;DHT22;6128;59.340;18.040;2022-08-21T11:26:34;23.30;99.90
12130;DHT22;6128;59.340;18.040;2022-08-21T11:29:09;23.30;99.90
12130;DHT22;6128;59.340;18.040;2022-08-21T11:31:48;23.40;99.90
12130;DHT22;6128;59.340;18.040;2022-08-21T11:34:30;23.60;99.90
12130;DHT22;6128;59.340;18.040;2022-08-21T11:37:05;23.60;99.90
12130;DHT22;6128;59.340;18.040;2022-08-21T11:39:39;23.60;99.90
12130;DHT22;6128;59.340;18.040;2022-08-21T11:42:17;23.60;99.90
12130;DHT22;6128;59.340;18.040;2022-08-21T11:44:50;23.70;99.90
12130;DHT22;6128;59.340;18.040;2022-08-21T11:47:27;23.70;99.90
12130;DHT22;6128;59.340;18.040;2022-08-21T11:50:06;23.70;99.90
12130;DHT22;6128;59.340;18.040;2022-08-21T11:52:42;23.70;99.90
12130;DHT22;6128;59.340;18.040;2022-08-21T11:55:14;23.70;99.90
12130;DHT22;6128;59.340;18.040;2022-08-21T11:57:49;23.60;99.90
12130;DHT22;6128;59.340;18.040;2022-08-21T12:00:21;23.60;99.90
12130;DHT22;6128;59.340;18.040;2022-08-21T12:02:52;23.70;99.90
12130;DHT22;6128;59.340;18.040;2022-08-21T12:05:27;23.70;99.90
12130;DHT22;6128;59.340;18.040;2022-08-21T12:08:06;23.80;99.90
12130;DHT22;6128;59.340;18.040;2022-08-21T12:10:36;23.80;99.90
12130;DHT22;6128;59.340;18.040;2022-08-21T12:13:07;23.90;99.90
12130;DHT22;6128;59.340;18.040;2022-08-21T12:15:37;23.90;99.90
12130;DHT22;6128;59.340;18.040;2022-08-21T12:18:23;23.90;99.90
12130;DHT22;6128;59.340;18.040;2022-08-21T12:21:05;23.90;99.90
12130;DHT22;6128;59.340;18.040;2022-08-21T12:23:46;24.00;99.90
12130;DHT22;6128;59.340;18.040;2022-08-21T12:26:26;24.10;99.90
12130;DHT22;6128;59.340;18.040;2022-08-21T12:29:12;24.20;99.90
12130;DHT22;6128;59.340;18.040;2022-08-21T12:31:50;24.30;99.90
12130;DHT22;6128;59.340;18.040;2022-08-21T12:34:17;24.40;99.90
12130;DHT22;6128;59.340;18.040;2022-08-21T12:36:53;24.40;99.90
12130;DHT22;6128;59.340;18.040;2022-08-21T12:39:23;24.40;99.90
12130;DHT22;6128;59.340;18.040;2022-08-21T12:41:56;24.40;99.90
12130;DHT22;6128;59.340;18.040;2022-08-21T12:44:31;24.30;99.90
12130;DHT22;6128;59.340;18.040;2022-08-21T12:47:04;24.20;99.90
12130;DHT22;6128;59.340;18.040;2022-08-21T12:49:35;24.20;99.90
12130;DHT22;6128;59.340;18.040;2022-08-21T12:52:10;24.20;99.90
12130;DHT22;6128;59.340;18.040;2022-08-21T12:54:40;24.30;99.90
12130;DHT22;6128;59.340;18.040;2022-08-21T12:57:09;24.40;99.90
12130;DHT22;6128;59.340;18.040;2022-08-21T12:59:43;24.40;99.90
12130;DHT22;6128;59.340;18.040;2022-08-21T13:02:16;24.60;99.90
12130;DHT22;6128;59.340;18.040;2022-08-21T13:04:46;24.60;99.90
12130;DHT22;6128;59.340;18.040;2022-08-21T13:07:22;24.60;99.90
12130;DHT22;6128;59.340;18.040;2022-08-21T13:09:54;24.60;99.90
12130;DHT22;6128;59.340;18.040;2022-08-21T13:12:23;24.50;99.90
12130;DHT22;6128;59.340;18.040;2022-08-21T13:14:51;24.40;99.90
12130;DHT22;6128;59.340;18.040;2022-08-21T13:17:20;24.40;99.90
12130;DHT22;6128;59.340;18.040;2022-08-21T13:19:55;24.30;99.90
12130;DHT22;6128;59.340;18.040;2022-08-21T13:22:25;24.30;99.90
12130;DHT22;6128;59.340;18.040;2022-08-21T13:24:53;24.40;99.90
12130;DHT22;6128;59.340;18.040;2022-08-21T13:27:24;24.50;99.90
12130;DHT22;6128;59.340;18.040;2022-08-21T13:30:04;24.50;99.90
12130;DHT22;6128;59.340;18.040;2022-08-21T13:32:34;24.50;99.90
12130;DHT22;6128;59.340;18.040;2022-08-21T13:35:15;24.40;99.90
12130;DHT22;6128;59.340;18.040;2022-08-21T13:37:48;24.40;99.90
12130;DHT22;6128;59.340;18.040;2022-08-21T13:40:21;24.30;99.90
12130;DHT22;6128;59.340;18.040;2022-08-21T13:42:50;24.30;99.90
12130;DHT22;6128;59.340;18.040;2022-08-21T13:45:23;24.30;99.90
12130;DHT22;6128;59.340;18.040;2022-08-21T13:47:52;24.30;99.90
12130;DHT22;6128;59.340;18.040;2022-08-21T13:50:22;24.40;99.90
12130;DHT22;6128;59.340;18.040;2022-08-21T13:52:58;24.40;99.90
12130;DHT22;6128;59.340;18.040;2022-08-21T13:55:36;24.40;99.90
12130;DHT22;6128;59.340;18.040;2022-08-21T13:58:04;24.40;99.90
12130;DHT22;6128;59.340;18.040;2022-08-21T14:00:34;24.40;99.90
12130;DHT22;6128;59.340;18.040;2022-08-21T14:03:06;24.40;99.90
12130;DHT22;6128;59.340;18.040;2022-08-21T14:05:36;24.40;99.90
12130;DHT22;6128;59.340;18.040;2022-08-21T14:08:08;24.50;99.90
12130;DHT22;6128;59.340;18.040;2022-08-21T14:10:42;24.50;99.90
12130;DHT22;6128;59.340;18.040;2022-08-21T14:13:29;24.40;99.90
12130;DHT22;6128;59.340;18.040;2022-08-21T14:16:02;24.40;99.90
12130;DHT22;6128;59.340;18.040;2022-08-21T14:18:29;24.40;99.90
12130;DHT22;6128;59.340;18.040;2022-08-21T14:21:06;24.40;99.90
12130;DHT22;6128;59.340;18.040;2022-08-21T14:23:35;24.40;99.90
12130;DHT22;6128;59.340;18.040;2022-08-21T14:26:05;24.40;99.90
12130;DHT22;6128;59.340;18.040;2022-08-21T14:28:34;24.40;99.90
12130;DHT22;6128;59.340;18.040;2022-08-21T14:31:13;24.40;99.90
12130;DHT22;6128;59.340;18.040;2022-08-21T14:33:41;24.50;99.90
12130;DHT22;6128;59.340;18.040;2022-08-21T14:36:08;24.50;99.90
12130;DHT22;6128;59.340;18.040;2022-08-21T14:38:39;24.60;99.90
12130;DHT22;6128;59.340;18.040;2022-08-21T14:41:13;24.60;99.90
12130;DHT22;6128;59.340;18.040;2022-08-21T14:43:43;24.60;99.90
12130;DHT22;6128;59.340;18.040;2022-08-21T14:46:11;24.50;99.90
12130;DHT22;6128;59.340;18.040;2022-08-21T14:48:39;24.40;99.90
12130;DHT22;6128;59.340;18.040;2022-08-21T14:51:06;24.30;99.90
12130;DHT22;6128;59.340;18.040;2022-08-21T14:53:34;24.20;99.90
12130;DHT22;6128;59.340;18.040;2022-08-21T14:56:03;24.20;99.90
12130;DHT22;6128;59.340;18.040;2022-08-21T14:58:36;24.20;99.90
12130;DHT22;6128;59.340;18.040;2022-08-21T15:01:05;24.20;99.90
12130;DHT22;6128;59.340;18.040;2022-08-21T15:03:33;24.10;99.90
12130;DHT22;6128;59.340;18.040;2022-08-21T15:06:01;24.00;99.90
12130;DHT22;6128;59.340;18.040;2022-08-21T15:08:28;24.00;99.90
12130;DHT22;6128;59.340;18.040;2022-08-21T15:10:55;24.00;99.90
12130;DHT22;6128;59.340;18.040;2022-08-21T15:13:24;24.00;99.90
12130;DHT22;6128;59.340;18.040;2022-08-21T15:15:52;24.00;99.90
12130;DHT22;6128;59.340;18.040;2022-08-21T15:18:19;23.90;99.90
12130;DHT22;6128;59.340;18.040;2022-08-21T15:20:47;23.90;99.90
12130;DHT22;6128;59.340;18.040;2022-08-21T15:23:14;23.80;99.90
12130;DHT22;6128;59.340;18.040;2022-08-21T15:25:42;23.80;99.90
12130;DHT22;6128;59.340;18.040;2022-08-21T15:28:11;23.80;99.90
12130;DHT22;6128;59.340;18.040;2022-08-21T15:30:41;23.80;99.90
12130;DHT22;6128;59.340;18.040;2022-08-21T15:33:08;23.80;99.90
12130;DHT22;6128;59.340;18.040;2022-08-21T15:35:36;23.80;99.90
12130;DHT22;6128;59.340;18.040;2022-08-21T15:38:04;23.80;99.90
12130;DHT22;6128;59.340;18.040;2022-08-21T15:40:33;23.70;99.90
12130;DHT22;6128;59.340;18.040;2022-08-21T15:43:02;23.70;99.90
12130;DHT22;6128;59.340;18.040;2022-08-21T15:45:30;23.70;99.90
12130;DHT22;6128;59.340;18.040;2022-08-21T15:47:59;23.70;99.90
12130;DHT22;6128;59.340;18.040;2022-08-21T15:50:28;23.60;99.90